Flight Track Log - Related Links

Times and Time Zones

All times are in EDT time to prevent confusion due to time zone crossing. See the CPT8773 flight status page for this flight to view local times or setup timezone preferences in your user account.

Time Position Orientation Groundspeed Altitude Reporting Facility
EDT Latitude Longitude Course Direction KTS MPH feet Rate Location/Type
Mon 09:08:17 AM 43.0642 -106.5181 312° West 123 142 8,500  Level Salt Lake Center
Mon 09:09:18 AM 43.0956 -106.5342 339° North 123 142 9,000 492 Climbing Salt Lake Center
Mon 09:10:19 AM 43.1275 -106.5483 342° North 123 142 9,500 537 Climbing Salt Lake Center
Mon 09:11:00 AM 43.0434 -106.6708 312° West  Level Estimated
Mon 09:11:21 AM 43.1617 -106.5681 337° Northwest 123 142 10,100  Level Denver Center
Mon 09:12:00 AM 43.0705 -106.7122 312° West  Level Estimated
Mon 09:12:22 AM 43.1861 -106.5925 324° Northwest 122 140 10,600  Level Denver Center
Mon 09:13:00 AM 43.0975 -106.7537 312° West  Level Estimated
Mon 09:13:35 AM 43.2231 -106.6214 330° Northwest 119 137 11,200  Level Denver Center
Mon 09:14:22 AM 43.2442 -106.6419 325° Northwest 117 135 11,600 444 Climbing Salt Lake Center
Mon 09:15:23 AM 43.2725 -106.6625 332° Northwest 118 136 12,000 246 Climbing Salt Lake Center
Mon 09:16:24 AM 43.3019 -106.6844 332° Northwest 122 140 12,100 49 Climbing Salt Lake Center
Mon 09:17:25 AM 43.3314 -106.7303 311° West 136 157 12,100  Level Salt Lake Center
Mon 09:18:26 AM 43.3553 -106.7750 306° West 147 169 12,100  Level Salt Lake Center
Mon 09:19:27 AM 43.3833 -106.8275 306° West 150 173 12,100 -49 Level Salt Lake Center
Mon 09:20:28 AM 43.4058 -106.8761 303° West 152 175 12,000 -49 Descending Salt Lake Center
Mon 09:21:29 AM 43.4286 -106.9253 303° West 155 178 12,000  Level Salt Lake Center
Mon 09:22:30 AM 43.4550 -106.9733 307° West 156 180 12,000  Level Salt Lake Center
Mon 09:23:31 AM 43.4808 -107.0222 306° West 156 180 12,000  Level Salt Lake Center
Mon 09:24:32 AM 43.5061 -107.0708 306° West 156 180 12,000  Level Salt Lake Center
Mon 09:25:33 AM 43.5314 -107.1197 306° West 156 180 12,000  Level Salt Lake Center
Mon 09:26:34 AM 43.5567 -107.1686 306° West 157 181 12,000  Level Salt Lake Center
Mon 09:27:35 AM 43.5872 -107.2239 307° West 156 180 12,000  Level Salt Lake Center
Mon 09:28:36 AM 43.6131 -107.2708 307° West 156 180 12,000  Level Salt Lake Center
Mon 09:29:37 AM 43.6381 -107.3181 306° West 156 180 12,000  Level Salt Lake Center
Mon 09:30:38 AM 43.6628 -107.3658 306° West 156 180 12,000  Level Salt Lake Center
Mon 09:31:39 AM 43.6875 -107.4128 306° West 156 180 12,000  Level Salt Lake Center
Mon 09:32:40 AM 43.7117 -107.4583 306° West 153 176 12,000  Level Salt Lake Center
Mon 09:33:41 AM 43.7358 -107.5050 306° West 152 175 12,000  Level Salt Lake Center
Mon 09:34:42 AM 43.7594 -107.5517 305° West 152 175 12,000  Level Salt Lake Center
Mon 09:35:43 AM 43.7839 -107.5964 307° West 152 175 12,000  Level Salt Lake Center
Mon 09:36:44 AM 43.8092 -107.6428 307° West 152 175 12,000  Level Salt Lake Center
Mon 09:37:45 AM 43.8350 -107.6911 307° West 152 175 12,000  Level Salt Lake Center
Mon 09:38:47 AM 43.8589 -107.7364 306° West 152 175 12,000  Level Salt Lake Center
Mon 09:39:48 AM 43.8878 -107.7928 305° West 151 174 12,000  Level Salt Lake Center
Mon 09:40:49 AM 43.9117 -107.8383 306° West 151 174 12,000  Level Salt Lake Center
Mon 09:41:50 AM 43.9361 -107.8847 306° West 151 174 12,000  Level Salt Lake Center
Mon 09:42:51 AM 43.9597 -107.9311 305° West 151 174 12,000  Level Salt Lake Center
Mon 09:43:52 AM 43.9839 -107.9778 306° West 151 174 12,000  Level Salt Lake Center
Mon 09:44:53 AM 44.0094 -108.0244 307° West 151 174 12,000  Level Salt Lake Center
Mon 09:45:54 AM 44.0328 -108.0711 305° West 151 174 12,000  Level Salt Lake Center
Mon 09:46:55 AM 44.0569 -108.1161 307° West 150 173 12,000  Level Salt Lake Center
Mon 09:47:56 AM 44.0806 -108.1636 305° West 150 173 12,000  Level Salt Lake Center
Mon 09:48:58 AM 44.1053 -108.2108 306° West 150 173 12,000  Level Salt Lake Center
Mon 09:49:59 AM 44.1297 -108.2569 306° West 150 173 12,000  Level Salt Lake Center
Mon 09:51:00 AM 44.1539 -108.3044 305° West 150 173 12,000 -246 Level Salt Lake Center
Mon 09:52:01 AM 44.1833 -108.3583 307° West 150 173 11,500 -541 Descending Salt Lake Center
Mon 09:53:02 AM 44.2069 -108.4000 308° West 146 168 10,900 -541 Descending Salt Lake Center
Mon 09:54:03 AM 44.2289 -108.4433 305° West 142 163 10,400 -488 Descending Salt Lake Center
Mon 09:55:05 AM 44.2500 -108.4889 303° West 142 163 9,900 -195 Descending Salt Lake Center
Mon 09:56:06 AM 44.2700 -108.5328 302° West 141 162 10,000 49 Climbing Salt Lake Center
Mon 09:57:07 AM 44.2917 -108.5764 305° West 139 160 10,000  Level Salt Lake Center
Mon 09:58:08 AM 44.3172 -108.6231 307° West 140 161 10,000  Level Salt Lake Center
Mon 09:59:09 AM 44.3419 -108.6717 305° West 146 168 10,000  Level Salt Lake Center
Mon 10:00:11 AM 44.3658 -108.7186 305° West 148 170 10,000  Level Salt Lake Center

Login

Don't have an account? Register now (free) for customized features, flight alerts, and more!